Time;durP1;ratioP1;P1;durP2;ratioP2;P2;SDS_P1;SDS_P2;PMS_P1;PMS_P2;Temp;Humidity;BMP_temperature;BMP_pressure;BME280_temperature;BME280_humidity;BME280_pressure;Samples;Min_cycle;Max_cycle;Signal;HPM_P1;HPM_P2
2022/02/06 00:00:41;;;;;;;;;9.00;7.00;;;;;8.83;58.52;101481.88;5117901;27;45381;-60
2022/02/06 00:03:06;;;;;;;;;5.75;4.25;;;;;8.84;58.61;101477.50;5117870;27;45312;-61
2022/02/06 00:05:31;;;;;;;;;6.00;4.00;;;;;8.86;58.53;101484.28;5117652;27;46833;-61
2022/02/06 00:07:57;;;;;;;;;4.50;4.50;;;;;8.86;58.63;101479.06;5117030;27;60579;-60
2022/02/06 00:10:23;;;;;;;;;8.75;4.50;;;;;8.87;58.70;101466.81;5117691;27;45316;-60
2022/02/06 00:12:48;;;;;;;;;6.00;5.00;;;;;8.87;58.84;101469.44;5117065;27;60541;-61
2022/02/06 00:15:14;;;;;;;;;6.75;5.00;;;;;8.88;58.83;101478.97;5117635;27;46125;-61
2022/02/06 00:17:39;;;;;;;;;7.00;5.50;;;;;8.89;59.06;101464.94;5117759;27;45311;-60
2022/02/06 00:20:06;;;;;;;;;8.75;5.00;;;;;8.89;58.80;101459.69;5117788;27;45317;-61
2022/02/06 00:27:55;;;;;;;;;7.25;4.25;;;;;8.93;58.97;101421.84;5117627;27;45184;-60
2022/02/06 00:32:51;;;;;;;;;4.00;3.25;;;;;8.93;59.06;101421.00;5117537;27;45350;-60
2022/02/06 00:41:09;;;;;;;;;5.00;4.00;;;;;8.90;59.10;101422.88;5117309;27;45224;-60
2022/02/06 00:43:28;;;;;;;;;5.25;4.00;;;;;8.90;59.07;101408.94;5117147;27;45489;-61
2022/02/06 00:45:54;;;;;;;;;6.50;4.75;;;;;8.90;59.38;101411.56;5116923;27;46071;-61
2022/02/06 00:48:32;;;;;;;;;6.00;4.50;;;;;8.91;59.17;101411.44;5117014;27;45326;-60
2022/02/06 00:51:10;;;;;;;;;4.50;4.25;;;;;8.92;59.32;101401.81;5098629;27;45371;-61
2022/02/06 00:53:36;;;;;;;;;12.25;4.00;;;;;8.93;59.12;101397.41;5098109;27;45360;-60
2022/02/06 00:56:01;;;;;;;;;6.75;5.00;;;;;8.92;59.21;101393.94;5116754;27;51349;-61
2022/02/06 00:58:26;;;;;;;;;6.75;2.00;;;;;8.93;59.13;101392.16;5116218;27;69414;-60
2022/02/06 01:00:52;;;;;;;;;3.25;3.00;;;;;8.92;59.45;101399.19;5116367;27;62637;-60
2022/02/06 01:03:17;;;;;;;;;5.50;3.00;;;;;8.92;59.37;101401.81;5117153;27;45567;-60
2022/02/06 01:05:43;;;;;;;;;6.75;5.50;;;;;8.93;59.43;101390.38;5116871;27;45769;-61
2022/02/06 01:08:09;;;;;;;;;17.75;15.50;;;;;8.94;59.64;101392.06;5116294;27;60810;-61
2022/02/06 01:10:34;;;;;;;;;14.75;5.25;;;;;8.95;59.66;101406.00;5116941;27;45400;-60
2022/02/06 01:13:13;;;;;;;;;7.00;5.00;;;;;8.95;59.42;101406.84;5117089;27;45313;-61
2022/02/06 01:15:44;;;;;;;;;4.00;3.00;;;;;8.96;59.57;101399.81;5115418;27;45381;-60
2022/02/06 01:18:18;;;;;;;;;5.25;3.25;;;;;8.96;59.35;101400.66;5115576;27;45333;-60
2022/02/06 01:20:47;;;;;;;;;6.00;3.00;;;;;8.97;59.52;101397.09;5116990;27;45348;-61
2022/02/06 01:23:26;;;;;;;;;6.75;5.00;;;;;8.97;59.53;101401.50;5116710;27;46049;-61
2022/02/06 01:26:03;;;;;;;;;5.75;4.00;;;;;8.96;59.62;101400.66;5116555;27;46188;-61
2022/02/06 01:28:40;;;;;;;;;2.00;2.00;;;;;8.95;59.59;101391.13;5098086;27;45289;-61
2022/02/06 01:33:36;;;;;;;;;6.00;4.75;;;;;8.97;59.79;101397.09;5116551;27;45380;-60
2022/02/06 01:36:21;;;;;;;;;3.00;3.00;;;;;8.99;59.66;101396.97;5115254;27;46251;-61
2022/02/06 01:41:22;;;;;;;;;7.75;5.00;;;;;9.00;59.50;101393.41;5120112;27;45278;-60
2022/02/06 01:43:57;;;;;;;;;5.50;3.50;;;;;8.99;59.50;101394.38;5119246;27;45378;-61
2022/02/06 01:46:37;;;;;;;;;3.50;2.25;;;;;8.99;59.51;101395.22;5119810;27;45293;-61
2022/02/06 02:00:30;;;;;;;;;5.25;4.00;;;;;8.94;59.95;101386.81;5104291;27;45701;-60
2022/02/06 02:03:05;;;;;;;;;3.00;3.00;;;;;8.91;59.69;101352.97;5119930;27;45348;-61
2022/02/06 02:05:55;;;;;;;;;8.50;4.00;;;;;8.89;60.26;101344.38;5119808;27;45385;-61
2022/02/06 02:13:55;;;;;;;;;6.00;4.00;;;;;8.83;60.24;101315.94;5119866;27;45277;-60
2022/02/06 02:16:58;;;;;;;;;5.75;3.25;;;;;8.81;60.44;101320.47;5100927;27;45257;-61
2022/02/06 02:27:22;;;;;;;;;4.25;3.25;;;;;8.78;60.60;101300.53;5119316;27;45364;-61
2022/02/06 02:48:30;;;;;;;;;4.25;2.00;;;;;8.81;60.59;101296.88;5119222;27;45292;-61
2022/02/06 02:51:00;;;;;;;;;4.50;2.00;;;;;8.81;60.61;101294.25;5117458;27;45357;-61
2022/02/06 02:53:38;;;;;;;;;3.00;3.00;;;;;8.82;60.55;101298.56;5118997;27;45231;-61
2022/02/06 02:56:19;;;;;;;;;6.50;3.00;;;;;8.83;60.74;101292.38;5100534;27;45349;-61
2022/02/06 02:59:05;;;;;;;;;3.00;2.00;;;;;8.85;60.57;101298.34;5100399;27;45376;-61
2022/02/06 03:01:39;;;;;;;;;3.00;3.00;;;;;8.87;60.42;101291.22;5119008;27;45333;-61
2022/02/06 03:04:04;;;;;;;;;4.00;3.00;;;;;8.88;60.38;101285.84;5117976;27;45363;-60
2022/02/06 03:06:30;;;;;;;;;4.00;2.00;;;;;8.90;60.29;101272.66;5118991;27;45232;-60
2022/02/06 03:08:57;;;;;;;;;3.00;3.00;;;;;8.92;60.36;101268.16;5118544;27;50169;-61
2022/02/06 03:11:22;;;;;;;;;8.75;2.00;;;;;8.92;60.41;101270.78;5118531;27;45438;-60
2022/02/06 03:13:57;;;;;;;;;2.00;2.00;;;;;8.92;60.24;101255.03;5118874;27;45419;-60
2022/02/06 03:16:30;;;;;;;;;2.00;2.00;;;;;8.94;60.23;101247.91;5119010;27;45381;-61
2022/02/06 03:19:41;;;;;;;;;3.00;2.75;;;;;8.96;60.16;101250.41;5118785;27;45452;-60
2022/02/06 03:21:45;;;;;;;;;5.00;2.00;;;;;8.98;60.28;101259.00;5107141;27;46062;-60
2022/02/06 03:26:42;;;;;;;;;3.00;1.75;;;;;8.99;60.36;101230.09;5118445;27;45295;-60
2022/02/06 03:29:07;;;;;;;;;2.25;2.00;;;;;9.01;60.34;101233.41;5117164;27;70431;-60
2022/02/06 03:31:32;;;;;;;;;4.00;2.00;;;;;9.02;60.49;101229.84;5117226;27;75670;-61
2022/02/06 03:33:58;;;;;;;;;2.00;2.00;;;;;9.04;60.47;101224.50;5117513;27;67343;-61
2022/02/06 03:36:23;;;;;;;;;3.25;1.25;;;;;9.05;60.46;101223.56;5118438;27;45505;-61
2022/02/06 03:38:51;;;;;;;;;4.50;3.75;;;;;9.08;60.46;101212.00;5117464;27;65265;-61
2022/02/06 03:41:18;;;;;;;;;2.00;2.00;;;;;9.07;60.54;101216.41;5118181;27;45528;-61
2022/02/06 03:44:04;;;;;;;;;2.50;2.00;;;;;9.08;60.65;101222.47;5118135;27;45351;-61
2022/02/06 03:46:39;;;;;;;;;2.00;2.00;;;;;9.10;61.04;101225.84;5118504;27;45375;-61
2022/02/06 03:49:11;;;;;;;;;3.00;1.25;;;;;9.09;60.96;101229.41;5118369;27;45502;-61
2022/02/06 03:51:38;;;;;;;;;2.25;1.25;;;;;9.09;61.25;101230.25;5117138;27;45418;-60
2022/02/06 03:54:04;;;;;;;;;3.75;1.50;;;;;9.10;61.27;101215.34;5117968;27;45866;-61
2022/02/06 03:56:31;;;;;;;;;4.00;2.00;;;;;9.09;61.48;101216.28;5117321;27;45291;-61
2022/02/06 03:58:57;;;;;;;;;2.00;1.00;;;;;9.10;61.57;101212.72;5118148;27;45456;-61
2022/02/06 04:01:22;;;;;;;;;3.00;3.00;;;;;9.11;61.39;101206.53;5117163;27;45955;-59
2022/02/06 04:03:48;;;;;;;;;4.25;2.75;;;;;9.12;61.81;101197.72;5117372;27;58497;-62
2022/02/06 04:06:13;;;;;;;;;4.50;2.50;;;;;9.12;61.98;101200.34;5116855;27;64808;-61
2022/02/06 04:08:40;;;;;;;;;4.00;3.00;;;;;9.11;61.77;101209.16;5117699;27;45308;-61
2022/02/06 04:11:10;;;;;;;;;2.00;2.00;;;;;9.11;61.72;101207.38;5117691;27;45320;-62
2022/02/06 04:13:41;;;;;;;;;3.25;2.25;;;;;9.12;62.00;101200.34;5117782;27;45817;-59
2022/02/06 04:16:13;;;;;;;;;3.00;2.00;;;;;9.13;62.05;101195.00;5117784;27;45413;-61
2022/02/06 04:18:51;;;;;;;;;4.75;2.75;;;;;9.12;62.32;101193.34;5116279;27;45303;-61
2022/02/06 04:21:16;;;;;;;;;1.50;1.00;;;;;9.14;61.92;101185.34;5098907;27;45999;-61
2022/02/06 04:23:42;;;;;;;;;3.75;2.25;;;;;9.14;62.06;101167.84;5117536;27;45396;-61
2022/02/06 04:26:07;;;;;;;;;4.75;2.00;;;;;9.16;61.94;101183.44;5116759;27;63972;-61
2022/02/06 04:28:33;;;;;;;;;5.25;2.00;;;;;9.16;62.21;101181.69;5116704;27;65358;-61
2022/02/06 04:30:59;;;;;;;;;2.25;2.25;;;;;9.14;62.32;101159.13;5117115;27;45331;-61
2022/02/06 04:33:24;;;;;;;;;2.00;2.00;;;;;9.15;62.19;101152.94;5116665;27;64528;-61
2022/02/06 04:35:53;;;;;;;;;3.00;2.00;;;;;9.16;62.25;101146.75;5117453;27;45286;-61
2022/02/06 05:18:12;;;;;;;;;3.00;2.00;;;;;8.98;63.06;101086.00;5120751;27;45399;-60
2022/02/06 05:30:47;;;;;;;;;2.25;1.75;;;;;8.96;63.29;101046.81;5084233;27;45305;-61
2022/02/06 05:33:13;;;;;;;;;5.75;3.00;;;;;8.93;63.58;101067.16;5079040;28;45335;-60
2022/02/06 05:35:39;;;;;;;;;2.00;2.00;;;;;8.91;63.54;101044.53;5078119;28;70752;-61
2022/02/06 05:38:05;;;;;;;;;4.25;3.00;;;;;8.90;63.50;101042.03;5079103;28;45333;-61
2022/02/06 05:40:30;;;;;;;;;4.00;3.00;;;;;8.89;63.60;101042.97;5078103;28;70627;-61
2022/02/06 05:42:55;;;;;;;;;4.00;1.50;;;;;8.88;63.52;101054.41;5077951;28;73742;-60
2022/02/06 05:45:21;;;;;;;;;4.00;3.00;;;;;8.87;63.75;101057.97;5077921;28;72430;-61
2022/02/06 05:47:47;;;;;;;;;3.50;3.00;;;;;8.87;63.86;101056.19;5060913;28;45237;-60
2022/02/06 05:50:16;;;;;;;;;1.00;0.00;;;;;8.88;63.52;101050.00;5079031;28;45560;-60
2022/02/06 05:52:41;;;;;;;;;3.75;2.75;;;;;8.89;63.68;101040.38;5078644;28;46110;-61
2022/02/06 05:55:08;;;;;;;;;4.50;2.00;;;;;8.90;63.89;101026.31;5078475;28;52203;-61
2022/02/06 05:57:33;;;;;;;;;7.50;3.00;;;;;8.92;63.76;101029.66;5078965;28;45414;-60
2022/02/06 05:59:59;;;;;;;;;2.00;2.00;;;;;8.91;63.78;101017.50;5060725;28;45349;-61
2022/02/06 06:02:24;;;;;;;;;6.25;3.00;;;;;8.91;63.98;101046.31;5077442;28;74673;-61
2022/02/06 06:04:50;;;;;;;;;6.25;2.00;;;;;8.89;63.84;101043.81;5077571;28;72501;-60
2022/02/06 06:07:15;;;;;;;;;4.75;2.25;;;;;8.89;64.05;101032.50;5078783;28;45447;-60
2022/02/06 06:09:40;;;;;;;;;5.50;3.50;;;;;8.89;64.01;101020.22;5077697;28;69091;-61
2022/02/06 06:12:07;;;;;;;;;5.00;3.00;;;;;8.88;64.12;101026.41;5078193;28;52111;-60
2022/02/06 06:14:33;;;;;;;;;4.75;3.00;;;;;8.88;64.26;101020.34;5078345;28;45348;-60
2022/02/06 06:16:58;;;;;;;;;3.00;1.75;;;;;8.88;64.10;101017.72;5078579;28;45394;-60
2022/02/06 06:19:24;;;;;;;;;4.50;2.25;;;;;8.84;64.17;101011.03;5077833;28;45630;-61
2022/02/06 06:21:54;;;;;;;;;3.00;2.50;;;;;8.81;64.37;101019.94;5078346;28;46217;-60
2022/02/06 06:24:22;;;;;;;;;2.00;2.00;;;;;8.81;64.39;101006.00;5077547;28;45363;-60
2022/02/06 06:26:47;;;;;;;;;5.75;3.25;;;;;8.81;64.67;101008.63;5078025;28;45311;-61
2022/02/06 06:29:13;;;;;;;;;4.50;3.25;;;;;8.82;64.49;100997.22;5077525;27;59877;-60
2022/02/06 06:31:38;;;;;;;;;6.00;2.75;;;;;8.81;64.57;100995.53;5077995;28;45407;-60
2022/02/06 06:34:04;;;;;;;;;2.75;2.75;;;;;8.80;64.69;100988.63;5077177;28;73043;-61
2022/02/06 06:36:31;;;;;;;;;2.00;2.00;;;;;8.80;64.24;100978.97;5077959;28;46238;-60
2022/02/06 06:38:56;;;;;;;;;4.75;3.00;;;;;8.79;64.71;100985.16;5077647;28;45217;-61
2022/02/06 06:41:22;;;;;;;;;5.00;3.00;;;;;8.78;65.10;100980.03;5077372;28;65055;-60
2022/02/06 06:43:47;;;;;;;;;4.50;1.50;;;;;8.76;64.80;101004.56;5077592;28;45438;-60
2022/02/06 06:46:13;;;;;;;;;2.75;2.00;;;;;8.76;65.26;100999.31;5077812;28;49933;-60
2022/02/06 06:48:38;;;;;;;;;3.50;2.00;;;;;8.76;65.24;100991.47;5077165;28;67284;-61
2022/02/06 06:51:04;;;;;;;;;3.00;3.00;;;;;8.76;65.24;100988.84;5077630;28;46107;-61
2022/02/06 06:53:30;;;;;;;;;3.25;2.00;;;;;8.76;65.20;100978.38;5077901;28;45398;-60
2022/02/06 06:56:00;;;;;;;;;4.00;2.00;;;;;8.78;65.21;100980.03;5078005;28;45303;-61
2022/02/06 06:58:35;;;;;;;;;3.00;3.00;;;;;8.79;65.42;100972.06;5076779;28;45542;-61
2022/02/06 07:01:47;;;;;;;;;3.00;2.00;;;;;8.81;65.51;100974.56;5077141;28;45382;-61
2022/02/06 07:03:46;;;;;;;;;3.00;1.75;;;;;8.81;65.51;100974.56;5066356;28;45166;-61
2022/02/06 07:06:11;;;;;;;;;4.00;3.00;;;;;8.82;65.43;100976.25;5076679;28;65748;-61
2022/02/06 07:08:37;;;;;;;;;3.00;3.00;;;;;8.81;65.70;100970.16;5076736;28;65868;-61
2022/02/06 07:11:02;;;;;;;;;2.00;2.00;;;;;8.81;65.48;100964.91;5077387;28;45336;-60
2022/02/06 07:13:27;;;;;;;;;2.00;2.00;;;;;8.81;65.65;100970.16;5076959;28;62756;-60
2022/02/06 07:15:53;;;;;;;;;3.00;1.50;;;;;8.82;65.61;100957.91;5076560;28;68200;-61
2022/02/06 07:18:19;;;;;;;;;1.75;1.75;;;;;8.82;65.70;100955.28;5077499;28;45657;-61
2022/02/06 07:20:45;;;;;;;;;2.00;2.00;;;;;8.81;65.64;100961.47;5077287;28;45470;-61
2022/02/06 07:23:10;;;;;;;;;2.00;2.00;;;;;8.81;65.84;100943.94;5077472;28;45295;-60
2022/02/06 07:25:37;;;;;;;;;5.00;3.00;;;;;8.81;65.94;100951.00;5076484;28;45536;-61
2022/02/06 07:28:03;;;;;;;;;3.00;3.00;;;;;8.82;65.76;100950.03;5076790;28;45236;-61
2022/02/06 07:30:29;;;;;;;;;3.00;3.00;;;;;8.81;65.98;100937.88;5076744;28;45434;-61
2022/02/06 07:32:54;;;;;;;;;3.00;3.00;;;;;8.82;65.86;100939.56;5076188;28;73186;-60
2022/02/06 07:35:20;;;;;;;;;2.00;1.25;;;;;8.83;66.14;100949.09;5076424;28;45357;-61
2022/02/06 07:37:55;;;;;;;;;2.75;2.00;;;;;8.83;65.96;100936.00;5077187;28;45547;-60
2022/02/06 07:40:20;;;;;;;;;2.50;1.75;;;;;8.83;65.98;100936.00;5076945;28;46049;-60
2022/02/06 07:42:45;;;;;;;;;2.00;1.00;;;;;8.83;65.99;100938.63;5076998;28;45227;-61
2022/02/06 07:45:12;;;;;;;;;5.75;3.25;;;;;8.85;66.25;100934.91;5076228;28;64591;-61
2022/02/06 07:47:39;;;;;;;;;2.00;1.75;;;;;8.86;66.29;100928.72;5076610;28;45561;-61
2022/02/06 07:50:06;;;;;;;;;4.00;2.25;;;;;8.87;66.65;100924.34;5058931;28;46308;-60
2022/02/06 07:52:31;;;;;;;;;3.25;2.25;;;;;8.89;66.74;100914.56;5076892;28;45387;-61
2022/02/06 07:54:57;;;;;;;;;2.00;2.00;;;;;8.87;66.79;100911.22;5076931;28;45457;-61
2022/02/06 07:57:22;;;;;;;;;3.25;2.25;;;;;8.85;67.26;100900.03;5075782;28;68351;-59
2022/02/06 07:59:48;;;;;;;;;2.25;2.25;;;;;8.83;67.19;100887.03;5075949;28;65927;-61
2022/02/06 08:02:13;;;;;;;;;2.00;1.25;;;;;8.82;67.02;100892.41;5076206;28;57933;-61
2022/02/06 08:04:39;;;;;;;;;3.00;2.00;;;;;8.82;67.20;100898.47;5077170;28;45213;-59
2022/02/06 08:07:05;;;;;;;;;1.75;1.75;;;;;8.81;67.21;100891.53;5076220;28;45556;-61
2022/02/06 08:09:46;;;;;;;;;4.00;2.25;;;;;8.81;66.91;100888.09;5076560;28;46030;-61
2022/02/06 08:12:12;;;;;;;;;2.25;2.25;;;;;8.82;66.66;100871.44;5076754;28;45414;-60
2022/02/06 08:14:56;;;;;;;;;2.25;2.00;;;;;8.81;67.03;100864.53;5076673;28;45371;-61
2022/02/06 08:17:25;;;;;;;;;3.00;1.75;;;;;8.81;66.70;100861.91;5076681;28;45397;-61
2022/02/06 08:19:51;;;;;;;;;1.00;1.00;;;;;8.81;66.66;100854.03;5076437;28;45852;-61
2022/02/06 08:22:16;;;;;;;;;3.25;1.00;;;;;8.83;66.49;100857.38;5076477;28;45273;-61
2022/02/06 08:24:42;;;;;;;;;1.00;1.00;;;;;8.81;66.97;100852.25;5076508;28;45305;-60
2022/02/06 08:27:07;;;;;;;;;2.25;2.00;;;;;8.81;67.02;100860.09;5076406;28;45351;-60
2022/02/06 08:29:35;;;;;;;;;2.00;2.00;;;;;8.81;66.75;100847.00;5075758;27;45307;-60
2022/02/06 08:32:01;;;;;;;;;4.00;2.75;;;;;8.81;67.29;100844.38;5076075;28;45787;-61
2022/02/06 08:34:26;;;;;;;;;4.25;2.75;;;;;8.83;67.07;100839.03;5076181;28;45279;-61
2022/02/06 08:36:52;;;;;;;;;4.00;2.25;;;;;8.83;67.33;100845.09;5075188;28;70409;-61
2022/02/06 08:39:17;;;;;;;;;5.25;2.00;;;;;8.84;67.73;100845.94;5075286;28;70862;-61
2022/02/06 08:41:42;;;;;;;;;3.25;1.50;;;;;8.82;67.79;100843.44;5075367;28;67715;-60
2022/02/06 08:44:08;;;;;;;;;6.75;1.25;;;;;8.83;68.09;100829.38;5075332;28;62065;-60
2022/02/06 08:46:33;;;;;;;;;3.75;2.00;;;;;8.82;68.39;100829.50;5077370;28;45195;-61
2022/02/06 08:48:58;;;;;;;;;4.00;3.00;;;;;8.85;68.58;100831.91;5078642;28;73585;-61
2022/02/06 08:51:24;;;;;;;;;3.75;2.00;;;;;8.87;68.85;100824.75;5079617;28;45467;-60
2022/02/06 08:53:51;;;;;;;;;3.00;1.25;;;;;8.88;68.86;100818.56;5079040;28;63415;-60
2022/02/06 08:56:17;;;;;;;;;4.75;1.25;;;;;8.89;69.28;100807.13;5079364;28;45636;-60
2022/02/06 08:58:42;;;;;;;;;5.00;4.00;;;;;8.91;69.26;100808.66;5078625;28;64973;-60
2022/02/06 09:01:07;;;;;;;;;4.50;3.00;;;;;8.92;69.60;100778.06;5079454;28;45398;-60
2022/02/06 09:03:33;;;;;;;;;2.50;1.00;;;;;8.92;69.75;100791.16;5078756;28;61633;-60
2022/02/06 09:05:58;;;;;;;;;2.00;2.00;;;;;8.94;69.90;100791.88;5078666;28;64663;-61
2022/02/06 09:08:24;;;;;;;;;5.25;4.00;;;;;8.95;69.77;100788.31;5078949;28;58518;-61
2022/02/06 09:10:49;;;;;;;;;2.00;1.50;;;;;8.97;70.28;100775.06;5078747;28;65868;-61
2022/02/06 09:13:15;;;;;;;;;3.00;2.00;;;;;8.98;70.28;100777.59;5079381;28;45260;-60
2022/02/06 09:15:40;;;;;;;;;1.00;1.00;;;;;9.00;70.19;100772.22;5079137;28;45673;-60
2022/02/06 09:18:06;;;;;;;;;3.25;3.00;;;;;9.02;70.30;100775.56;5077832;28;73415;-60
2022/02/06 09:20:32;;;;;;;;;4.00;2.00;;;;;9.04;70.67;100748.25;5078655;28;49786;-61
2022/02/06 09:22:59;;;;;;;;;2.00;2.00;;;;;9.06;70.44;100771.75;5061039;28;45267;-61
2022/02/06 09:25:25;;;;;;;;;3.75;1.00;;;;;9.06;70.61;100769.94;5079182;28;45561;-61
2022/02/06 09:27:50;;;;;;;;;5.50;2.00;;;;;9.08;71.00;100761.13;5077874;28;74706;-61
2022/02/06 09:30:17;;;;;;;;;2.00;2.00;;;;;9.08;70.85;100758.50;5077972;27;65403;-60
2022/02/06 09:35:08;;;;;;;;;2.50;2.00;;;;;9.12;71.03;100752.06;5078996;28;45690;-61
2022/02/06 09:37:34;;;;;;;;;2.00;1.25;;;;;9.14;71.13;100750.16;5078736;28;46012;-60
2022/02/06 09:39:59;;;;;;;;;3.25;1.75;;;;;9.17;71.08;100748.16;5077997;28;71359;-61
2022/02/06 09:42:28;;;;;;;;;2.75;2.25;;;;;9.20;71.28;100741.81;5079042;28;45430;-61
2022/02/06 09:44:54;;;;;;;;;1.00;1.00;;;;;9.22;71.00;100760.88;5079143;28;45320;-61
2022/02/06 09:47:21;;;;;;;;;1.00;1.00;;;;;9.26;71.10;100753.63;5078030;28;66882;-61
2022/02/06 09:49:47;;;;;;;;;2.00;1.25;;;;;9.29;71.18;100745.47;5078802;28;45181;-61
2022/02/06 09:52:16;;;;;;;;;2.00;2.00;;;;;9.31;71.45;100739.16;5043896;28;45581;-61
2022/02/06 09:54:46;;;;;;;;;3.25;1.00;;;;;9.32;71.54;100747.84;5078650;28;45317;-60
2022/02/06 09:57:12;;;;;;;;;2.00;2.00;;;;;9.33;71.34;100733.78;5078578;28;46127;-61
2022/02/06 09:59:38;;;;;;;;;2.25;1.50;;;;;9.37;71.04;100737.03;5043407;28;45436;-60
2022/02/06 10:02:03;;;;;;;;;1.25;1.00;;;;;9.37;71.46;100722.09;5060836;28;45475;-61
2022/02/06 10:04:30;;;;;;;;;3.00;2.00;;;;;9.38;71.79;100742.13;5077676;28;69772;-61
2022/02/06 10:07:08;;;;;;;;;2.00;1.00;;;;;9.40;71.17;100731.53;5078283;28;46854;-60
2022/02/06 10:09:49;;;;;;;;;1.00;1.00;;;;;9.40;71.51;100723.66;5060048;28;45719;-60
2022/02/06 10:12:15;;;;;;;;;2.25;2.00;;;;;9.41;71.65;100720.09;5078260;28;45304;-60
2022/02/06 10:14:40;;;;;;;;;3.75;2.00;;;;;9.42;71.88;100730.44;5078485;28;45249;-61
2022/02/06 10:17:05;;;;;;;;;2.50;2.00;;;;;9.45;71.85;100716.25;5078240;28;46888;-61
2022/02/06 10:19:31;;;;;;;;;2.00;2.00;;;;;9.48;71.91;100708.13;5078317;28;45286;-61
2022/02/06 10:21:57;;;;;;;;;3.50;1.75;;;;;9.50;71.96;100729.84;5078422;28;45593;-61
2022/02/06 10:24:33;;;;;;;;;2.25;2.00;;;;;9.48;71.57;100718.63;5078272;28;45398;-61
2022/02/06 10:27:17;;;;;;;;;1.00;1.00;;;;;9.57;71.69;100730.97;5077957;28;45347;-61
2022/02/06 10:29:44;;;;;;;;;2.00;1.00;;;;;9.59;72.05;100723.00;5066910;27;45783;-61
2022/02/06 10:32:19;;;;;;;;;2.00;0.75;;;;;9.61;71.94;100723.72;5098617;27;45333;-60
2022/02/06 10:34:45;;;;;;;;;4.50;3.00;;;;;9.63;71.88;100725.22;5098345;27;45473;-61
2022/02/06 10:37:21;;;;;;;;;3.50;2.00;;;;;9.67;71.83;100707.47;5080162;27;45885;-61
2022/02/06 10:39:57;;;;;;;;;4.25;3.00;;;;;9.69;71.62;100720.44;5098397;27;45892;-60
2022/02/06 10:42:29;;;;;;;;;5.25;4.50;;;;;9.72;71.76;100718.41;5098556;27;45243;-61
2022/02/06 10:45:20;;;;;;;;;3.00;2.00;;;;;9.78;71.77;100722.31;5098573;27;45267;-61
2022/02/06 10:47:49;;;;;;;;;4.75;3.00;;;;;9.80;72.05;100723.03;5097307;27;45346;-60
2022/02/06 10:50:25;;;;;;;;;5.00;2.00;;;;;9.82;72.13;100728.97;5098303;27;45749;-61
2022/02/06 10:52:51;;;;;;;;;6.50;4.00;;;;;9.84;72.10;100708.69;5098353;27;45228;-60
2022/02/06 10:55:18;;;;;;;;;2.75;2.75;;;;;9.86;72.04;100698.91;5079247;27;45698;-61
2022/02/06 10:58:03;;;;;;;;;3.25;2.75;;;;;9.89;72.07;100711.78;5079645;27;46149;-61
2022/02/06 11:00:30;;;;;;;;;4.75;2.50;;;;;9.91;72.16;100696.72;5097968;27;45952;-60
2022/02/06 11:03:02;;;;;;;;;10.25;8.00;;;;;9.94;72.03;100678.09;5098140;27;45535;-60
2022/02/06 11:05:36;;;;;;;;;6.25;4.50;;;;;9.97;72.13;100678.81;5097771;27;45350;-61
2022/02/06 11:08:02;;;;;;;;;4.50;3.75;;;;;9.99;72.17;100671.63;5064693;27;46891;-61
2022/02/06 11:10:33;;;;;;;;;3.75;2.50;;;;;10.01;71.86;100662.66;5096414;27;45466;-61
2022/02/06 11:13:03;;;;;;;;;8.50;5.50;;;;;10.01;72.21;100639.03;5097850;27;45347;-63
2022/02/06 11:15:40;;;;;;;;;6.00;6.00;;;;;10.04;71.75;100651.91;5097949;27;45321;-61
2022/02/06 11:18:32;;;;;;;;;5.25;4.00;;;;;10.08;72.27;100660.34;5079936;27;45420;-61
2022/02/06 11:21:03;;;;;;;;;4.00;3.00;;;;;10.11;72.09;100654.81;5097826;27;45319;-61
2022/02/06 11:23:41;;;;;;;;;6.25;5.00;;;;;10.15;72.05;100639.66;5097678;27;45319;-61
2022/02/06 11:26:07;;;;;;;;;5.25;4.00;;;;;10.17;71.61;100638.56;5097021;27;45306;-61
2022/02/06 11:28:33;;;;;;;;;2.25;2.25;;;;;10.21;71.99;100624.19;5097698;27;46834;-61
2022/02/06 11:30:58;;;;;;;;;17.50;15.00;;;;;10.23;71.71;100610.97;5078965;27;45427;-61
2022/02/06 11:33:24;;;;;;;;;5.00;4.00;;;;;10.28;71.67;100610.53;5077391;28;45323;-61
2022/02/06 11:35:56;;;;;;;;;5.50;3.00;;;;;10.29;71.30;100615.69;5059051;28;45577;-61
2022/02/06 11:44:17;;;;;;;;;3.00;2.00;;;;;10.36;71.15;100590.53;5061686;28;45223;-61
2022/02/06 11:46:58;;;;;;;;;3.00;2.00;;;;;10.38;70.81;100577.28;5077200;28;45325;-62
2022/02/06 11:49:23;;;;;;;;;4.25;2.50;;;;;10.41;70.46;100605.94;5058727;28;46178;-61
2022/02/06 11:51:57;;;;;;;;;3.00;3.00;;;;;10.43;70.55;100588.25;5040998;28;68116;-61
2022/02/06 11:54:35;;;;;;;;;2.00;2.00;;;;;10.46;70.74;100576.63;5076305;28;45240;-60
2022/02/06 11:57:30;;;;;;;;;3.00;3.00;;;;;10.51;70.81;100590.19;5077016;28;45388;-61
2022/02/06 12:00:05;;;;;;;;;2.50;2.50;;;;;10.53;70.45;100567.25;5076895;28;45445;-60
2022/02/06 12:02:34;;;;;;;;;3.75;3.00;;;;;10.55;70.23;100557.44;5076686;28;45402;-61
2022/02/06 12:05:08;;;;;;;;;6.00;4.00;;;;;10.58;70.53;100565.03;5076893;28;45307;-61
2022/02/06 12:07:52;;;;;;;;;5.50;2.00;;;;;10.62;70.37;100553.31;5076902;28;45296;-61
2022/02/06 12:10:32;;;;;;;;;2.50;2.00;;;;;10.64;70.19;100572.41;5076466;28;45512;-61
2022/02/06 12:13:30;;;;;;;;;3.25;3.00;;;;;10.67;70.37;100593.16;5076533;28;45565;-61
2022/02/06 12:16:01;;;;;;;;;3.00;2.50;;;;;10.70;70.38;100586.78;5076124;28;45386;-60
2022/02/06 12:18:27;;;;;;;;;3.00;3.00;;;;;10.72;70.42;100576.97;5076606;28;45194;-61
2022/02/06 12:20:55;;;;;;;;;3.00;1.75;;;;;10.75;70.70;100562.72;5075900;28;46221;-60
2022/02/06 12:23:39;;;;;;;;;5.50;2.00;;;;;10.75;70.72;100574.06;5076336;28;45476;-61
2022/02/06 12:26:32;;;;;;;;;4.00;2.00;;;;;10.77;71.08;100558.16;5076400;28;45417;-60
2022/02/06 12:28:58;;;;;;;;;4.50;3.75;;;;;10.79;70.69;100538.66;5076342;27;45377;-60
2022/02/06 12:31:30;;;;;;;;;5.50;2.00;;;;;10.80;70.53;100548.19;5075862;28;46147;-61
2022/02/06 12:37:08;;;;;;;;;3.00;3.00;;;;;10.87;70.61;100539.78;5076477;28;45366;-61
2022/02/06 12:39:35;;;;;;;;;3.00;3.00;;;;;10.89;70.80;100556.22;5076318;28;45326;-61
2022/02/06 12:42:01;;;;;;;;;5.50;4.25;;;;;10.92;70.86;100545.44;5076059;28;45251;-61
2022/02/06 12:44:27;;;;;;;;;3.00;1.50;;;;;10.95;70.12;100559.13;5076042;28;45397;-61
2022/02/06 12:46:56;;;;;;;;;3.00;1.50;;;;;10.99;70.05;100546.56;5076218;28;45271;-61
2022/02/06 12:49:30;;;;;;;;;2.50;2.00;;;;;11.02;70.36;100538.41;5041567;28;45290;-61
2022/02/06 12:51:56;;;;;;;;;2.50;1.00;;;;;11.05;70.10;100524.97;5075897;28;47584;-61
2022/02/06 12:54:22;;;;;;;;;3.25;2.00;;;;;11.08;69.78;100519.44;5075969;28;49412;-62
2022/02/06 12:56:47;;;;;;;;;1.00;1.00;;;;;11.11;69.98;100528.84;5076056;28;45438;-61
2022/02/06 12:59:16;;;;;;;;;4.00;2.75;;;;;11.13;69.68;100513.75;5075827;28;48561;-61
2022/02/06 13:01:44;;;;;;;;;3.25;3.00;;;;;11.17;69.97;100532.69;5075752;28;45362;-61
2022/02/06 13:04:11;;;;;;;;;2.25;2.00;;;;;11.21;69.84;100520.91;5075882;28;45347;-60
2022/02/06 13:06:38;;;;;;;;;4.00;3.00;;;;;11.22;70.11;100522.59;5075939;28;45297;-60
2022/02/06 13:09:07;;;;;;;;;4.75;3.75;;;;;11.24;70.02;100525.91;5075837;28;45659;-61
2022/02/06 13:11:43;;;;;;;;;2.00;1.00;;;;;11.24;70.45;100525.91;5075375;28;45320;-61
2022/02/06 13:16:49;;;;;;;;;2.00;1.00;;;;;11.24;70.62;100532.00;5075889;28;45358;-61
2022/02/06 13:35:36;;;;;;;;;3.75;3.00;;;;;11.26;70.87;100534.47;5078659;28;45218;-61
2022/02/06 13:38:12;;;;;;;;;2.00;2.00;;;;;11.27;71.18;100520.38;5060904;28;45300;-60
2022/02/06 13:40:45;;;;;;;;;4.00;3.50;;;;;11.28;71.23;100511.50;5060802;28;45332;-59
2022/02/06 13:43:17;;;;;;;;;5.50;4.00;;;;;11.28;71.00;100517.59;5078897;28;46410;-60
2022/02/06 13:45:43;;;;;;;;;2.25;1.00;;;;;11.29;71.02;100507.91;5078893;28;45261;-60
2022/02/06 13:48:09;;;;;;;;;2.75;1.00;;;;;11.28;71.40;100501.81;5078233;28;55817;-61
2022/02/06 13:50:40;;;;;;;;;3.00;2.00;;;;;11.28;70.82;100495.72;5078649;28;45525;-61
2022/02/06 13:53:13;;;;;;;;;2.25;2.00;;;;;11.28;71.44;100486.03;5077765;28;46517;-61
2022/02/06 13:55:48;;;;;;;;;2.00;2.00;;;;;11.28;71.38;100491.31;5078353;28;45339;-61
2022/02/06 13:58:15;;;;;;;;;1.00;1.00;;;;;11.30;71.67;100488.53;5078200;28;45452;-61
2022/02/06 14:00:58;;;;;;;;;5.00;3.00;;;;;11.29;71.71;100465.81;5060648;28;45417;-61
2022/02/06 14:03:39;;;;;;;;;4.00;2.00;;;;;11.26;71.22;100463.47;5060041;28;48190;-60
2022/02/06 14:06:04;;;;;;;;;1.00;1.00;;;;;11.30;71.67;100487.69;5062430;28;45821;-61